Time;durP1;ratioP1;P1;durP2;ratioP2;P2;SDS_P1;SDS_P2;PMS_P1;PMS_P2;Temp;Humidity;BMP_temperature;BMP_pressure;BME280_temperature;BME280_humidity;BME280_pressure;Samples;Min_cycle;Max_cycle;Signal;HPM_P1;HPM_P2
2022/02/11 00:00:10;;;;;;;0.20;0.10;;;;;;;6.05;100.00;100772.22;5032162;28;20478;-54
2022/02/11 00:07:56;;;;;;;0.20;0.10;;;;;;;5.78;100.00;100778.41;5008174;28;20446;-54
2022/02/11 00:10:24;;;;;;;0.20;0.10;;;;;;;5.73;100.00;100779.28;5041236;28;20991;-54
2022/02/11 00:12:51;;;;;;;0.20;0.10;;;;;;;5.68;100.00;100791.59;5047275;28;20448;-53
2022/02/11 00:17:54;;;;;;;0.20;0.10;;;;;;;5.63;100.00;100800.41;5030904;28;20439;-54
2022/02/11 00:20:23;;;;;;;0.20;0.10;;;;;;;5.70;100.00;100792.47;5053239;28;20467;-54
2022/02/11 00:22:49;;;;;;;0.20;0.10;;;;;;;5.62;100.00;100801.28;5034755;28;20455;-54
2022/02/11 00:25:17;;;;;;;0.20;0.10;;;;;;;5.63;100.00;100808.31;5047973;28;20451;-54
2022/02/11 00:32:50;;;;;;;0.20;0.10;;;;;;;5.61;100.00;100815.31;5044307;28;20490;-54
2022/02/11 00:37:50;;;;;;;0.20;0.10;;;;;;;5.70;100.00;100825.00;5034521;28;20448;-54
2022/02/11 00:40:37;;;;;;;0.73;0.73;;;;;;;5.56;100.00;100837.28;5047589;28;20452;-54
2022/02/11 01:04:37;;;;;;;0.20;0.10;;;;;;;5.25;100.00;100844.28;5040470;28;20443;-54
2022/02/11 01:07:04;;;;;;;0.20;0.10;;;;;;;5.43;100.00;100848.69;5050297;28;20864;-54
2022/02/11 01:09:32;;;;;;;0.20;0.10;;;;;;;5.39;100.00;100847.81;5047707;28;20549;-54
2022/02/11 01:12:03;;;;;;;0.20;0.10;;;;;;;5.23;100.00;100854.84;5047295;28;20907;-55
2022/02/11 01:14:39;;;;;;;0.20;0.10;;;;;;;5.23;100.00;100853.97;5041529;28;20451;-54
2022/02/11 01:17:54;;;;;;;0.20;0.10;;;;;;;5.20;100.00;100860.06;5038600;28;20856;-55
2022/02/11 01:20:07;;;;;;;0.20;0.10;;;;;;;5.35;100.00;100856.63;5034249;28;20463;-54
2022/02/11 01:23:37;;;;;;;0.20;0.10;;;;;;;5.32;100.00;100862.75;5044221;28;20472;-54
2022/02/11 01:46:40;;;;;;;0.20;0.10;;;;;;;5.28;100.00;100871.53;5040937;28;20996;-55
2022/02/11 01:56:56;;;;;;;0.20;0.10;;;;;;;5.12;100.00;100896.06;5046411;28;20869;-54
2022/02/11 01:59:51;;;;;;;0.20;0.10;;;;;;;5.18;100.00;100900.47;5046466;28;20442;-55
2022/02/11 02:59:16;;;;;;;0.20;0.10;;;;;;;5.29;100.00;100910.19;5039550;28;20475;-54
2022/02/11 03:01:57;;;;;;;0.20;0.10;;;;;;;5.31;100.00;100918.97;5027636;28;20466;-54
2022/02/11 04:27:43;;;;;;;0.20;0.20;;;;;;;2.27;100.00;101020.25;5047443;28;20449;-54
2022/02/11 04:56:57;;;;;;;0.20;0.10;;;;;;;3.49;100.00;101053.56;5045036;28;20498;-54
2022/02/11 04:59:37;;;;;;;0.20;0.10;;;;;;;3.73;100.00;101055.59;5047422;28;20448;-54
2022/02/11 05:02:07;;;;;;;0.37;0.33;;;;;;;3.63;100.00;101055.47;5045533;28;20509;-54
2022/02/11 05:04:34;;;;;;;0.27;0.20;;;;;;;3.68;100.00;101061.66;5040359;28;20458;-54
2022/02/11 05:07:03;;;;;;;0.20;0.10;;;;;;;4.05;100.00;101063.81;5049983;28;20450;-54
2022/02/11 05:09:33;;;;;;;0.20;0.10;;;;;;;4.09;100.00;101064.72;5040502;28;20483;-54
2022/02/11 05:12:02;;;;;;;0.20;0.10;;;;;;;3.80;100.00;101070.56;5040219;28;20487;-54
2022/02/11 05:14:28;;;;;;;0.20;0.10;;;;;;;3.85;100.00;101079.41;5027405;28;20520;-54
2022/02/11 05:16:55;;;;;;;0.20;0.10;;;;;;;4.02;100.00;101078.72;5038568;28;20949;-54
2022/02/11 05:19:21;;;;;;;0.20;0.10;;;;;;;4.03;100.00;101091.00;5046933;28;20487;-54
2022/02/11 05:21:48;;;;;;;0.20;0.13;;;;;;;4.03;100.00;101081.34;5038472;28;20992;-54
2022/02/11 05:24:14;;;;;;;4.43;3.30;;;;;;;3.97;100.00;101090.91;5027088;28;20682;-54
2022/02/11 05:26:41;;;;;;;0.20;0.20;;;;;;;3.93;100.00;101089.13;5040269;28;20447;-54
2022/02/11 05:29:08;;;;;;;0.20;0.10;;;;;;;4.01;100.00;101083.09;5046219;28;20452;-54
2022/02/11 05:31:34;;;;;;;0.20;0.10;;;;;;;4.07;100.00;101090.16;5046471;28;20501;-55
2022/02/11 05:34:01;;;;;;;0.20;0.10;;;;;;;4.00;100.00;101105.00;5040958;28;20504;-55
2022/02/11 05:36:27;;;;;;;0.20;0.10;;;;;;;3.93;100.00;101100.50;5039906;28;20488;-55
2022/02/11 05:38:54;;;;;;;0.20;0.10;;;;;;;4.18;100.00;101109.56;5046198;28;20508;-55
2022/02/11 05:41:20;;;;;;;0.20;0.20;;;;;;;4.10;100.00;101111.22;5046790;28;20468;-55
2022/02/11 05:43:47;;;;;;;0.20;0.10;;;;;;;4.20;100.00;101113.09;5040680;28;20485;-55
2022/02/11 05:46:15;;;;;;;0.20;0.10;;;;;;;4.24;100.00;101124.53;5039728;28;20444;-55
2022/02/11 05:48:43;;;;;;;0.20;0.10;;;;;;;4.02;100.00;101118.16;5045281;28;20494;-55
2022/02/11 05:51:10;;;;;;;0.40;0.40;;;;;;;3.83;100.00;101123.19;5046263;28;20991;-55
2022/02/11 05:53:37;;;;;;;0.20;0.10;;;;;;;3.81;100.00;101126.66;5041149;28;20805;-55
2022/02/11 05:56:04;;;;;;;0.20;0.10;;;;;;;3.96;100.00;101124.22;5039659;28;20452;-55
2022/02/11 05:58:31;;;;;;;0.20;0.10;;;;;;;3.90;100.00;101125.91;5044534;28;20451;-55
2022/02/11 06:00:58;;;;;;;0.20;0.10;;;;;;;3.80;100.00;101128.41;5045987;28;20467;-55
2022/02/11 06:03:25;;;;;;;0.37;0.37;;;;;;;3.90;100.00;101131.16;5041759;28;20450;-55
2022/02/11 06:05:51;;;;;;;0.20;0.10;;;;;;;3.82;100.00;101118.78;5039395;28;20452;-55
2022/02/11 06:08:18;;;;;;;0.20;0.10;;;;;;;3.89;100.00;101113.63;5044028;28;20447;-55
2022/02/11 06:10:46;;;;;;;0.20;0.10;;;;;;;3.79;100.00;101118.75;5045877;28;20529;-55
2022/02/11 06:13:13;;;;;;;0.20;0.10;;;;;;;3.84;100.00;101116.22;5042069;28;20496;-55
2022/02/11 06:15:42;;;;;;;0.20;0.10;;;;;;;3.90;100.00;101128.53;5047915;28;20443;-55
2022/02/11 06:18:08;;;;;;;0.20;0.10;;;;;;;3.86;100.00;101123.25;5042861;28;20454;-55
2022/02/11 06:20:35;;;;;;;0.20;0.10;;;;;;;3.72;100.00;101135.34;5021626;28;20522;-55
2022/02/11 06:23:02;;;;;;;0.20;0.10;;;;;;;3.72;100.00;101131.81;5044415;28;21017;-55
2022/02/11 06:25:31;;;;;;;0.20;0.13;;;;;;;3.58;100.00;101147.41;5039180;28;20459;-55
2022/02/11 06:27:58;;;;;;;0.20;0.10;;;;;;;3.68;100.00;101143.13;5041610;28;20463;-55
2022/02/11 06:30:26;;;;;;;0.20;0.10;;;;;;;3.62;100.00;101153.59;5045637;28;20496;-55
2022/02/11 06:32:59;;;;;;;0.20;0.10;;;;;;;3.60;100.00;101153.56;5045303;28;20641;-55
2022/02/11 06:35:31;;;;;;;0.20;0.10;;;;;;;3.59;100.00;101159.69;5035800;28;20455;-55
2022/02/11 06:37:58;;;;;;;0.30;0.10;;;;;;;3.49;100.00;101171.81;5045744;28;20450;-55
2022/02/11 06:40:29;;;;;;;0.20;0.10;;;;;;;3.40;100.00;101181.28;5025498;28;20492;-55
2022/02/11 06:42:56;;;;;;;0.20;0.10;;;;;;;3.21;100.00;101188.03;5020447;28;20448;-55
2022/02/11 06:45:25;;;;;;;0.20;0.10;;;;;;;2.95;100.00;101195.47;5045089;28;20475;-55
2022/02/11 06:47:53;;;;;;;0.20;0.10;;;;;;;3.01;100.00;101207.81;5045469;28;20461;-55
2022/02/11 06:50:20;;;;;;;0.20;0.20;;;;;;;2.94;100.00;101212.09;5040795;28;20544;-55
2022/02/11 06:52:49;;;;;;;0.20;0.10;;;;;;;2.87;100.00;101211.09;5038695;28;20459;-55
2022/02/11 06:55:16;;;;;;;0.20;0.20;;;;;;;2.81;100.00;101213.63;5043458;28;20841;-55
2022/02/11 06:57:43;;;;;;;0.20;0.10;;;;;;;2.83;100.00;101230.28;5045740;28;20446;-55
2022/02/11 07:00:12;;;;;;;0.20;0.10;;;;;;;2.72;100.00;101223.94;5040819;28;20493;-56
2022/02/11 07:02:39;;;;;;;0.20;0.10;;;;;;;2.82;100.00;101233.75;5038523;28;20483;-56
2022/02/11 07:05:06;;;;;;;0.20;0.10;;;;;;;2.75;100.00;101229.28;5043076;28;20879;-56
2022/02/11 07:07:33;;;;;;;0.20;0.10;;;;;;;2.70;100.00;101230.03;5045267;28;20868;-56
2022/02/11 07:10:00;;;;;;;0.20;0.13;;;;;;;2.87;100.00;101234.72;5041480;28;20973;-55
2022/02/11 07:12:27;;;;;;;0.20;0.10;;;;;;;3.11;100.00;101233.38;5068350;22;21075;-52
2022/02/11 07:14:53;;;;;;;0.20;0.10;;;;;;;3.34;100.00;101250.41;5062167;28;20477;-53
2022/02/11 07:17:20;;;;;;;0.20;0.10;;;;;;;3.74;100.00;101249.28;5068379;28;20446;-53
2022/02/11 07:19:47;;;;;;;0.30;0.30;;;;;;;3.97;100.00;101253.97;5061560;28;20450;-54
2022/02/11 07:22:14;;;;;;;0.20;0.10;;;;;;;4.20;100.00;101244.66;5060672;28;20470;-53
2022/02/11 07:24:41;;;;;;;1.70;1.47;;;;;;;4.26;100.00;101257.91;5061223;28;20446;-53
2022/02/11 07:27:09;;;;;;;0.20;0.10;;;;;;;4.26;100.00;101264.91;5065267;28;21008;-53
2022/02/11 07:29:36;;;;;;;0.20;0.10;;;;;;;4.37;100.00;101261.53;5062757;28;20442;-53
2022/02/11 07:32:03;;;;;;;0.20;0.10;;;;;;;4.40;100.00;101265.97;5057983;28;20496;-53
2022/02/11 07:34:30;;;;;;;0.20;0.10;;;;;;;4.48;100.00;101264.28;5060507;28;20450;-53
2022/02/11 07:36:56;;;;;;;0.20;0.20;;;;;;;4.60;100.00;101266.19;5058417;28;20458;-53
2022/02/11 07:39:43;;;;;;;0.20;0.10;;;;;;;4.59;100.00;101267.06;5058052;28;20541;-53
2022/02/11 07:42:09;;;;;;;0.20;0.10;;;;;;;4.79;100.00;101270.78;5064898;28;20470;-53
2022/02/11 07:44:36;;;;;;;0.20;0.10;;;;;;;4.59;100.00;101270.56;5065254;28;20450;-53
2022/02/11 07:47:03;;;;;;;0.20;0.10;;;;;;;4.91;100.00;101270.91;5045484;28;20458;-54
2022/02/11 07:49:29;;;;;;;0.20;0.10;;;;;;;5.00;98.93;101275.41;5058353;28;20501;-53
2022/02/11 07:51:56;;;;;;;0.20;0.10;;;;;;;4.93;99.35;101287.59;5064863;28;20495;-53
2022/02/11 07:54:23;;;;;;;0.20;0.10;;;;;;;4.96;98.96;101295.56;5068349;28;20454;-54
2022/02/11 07:56:50;;;;;;;0.20;0.10;;;;;;;5.15;99.48;101287.84;5063016;28;20449;-53
2022/02/11 07:59:17;;;;;;;0.20;0.10;;;;;;;4.95;99.07;101293.81;5061574;28;20997;-52
2022/02/11 08:01:43;;;;;;;0.20;0.10;;;;;;;4.98;99.62;101303.47;5067679;28;20467;-53
2022/02/11 08:04:10;;;;;;;0.20;0.10;;;;;;;5.09;99.90;101303.59;5068017;28;20503;-52
2022/02/11 08:06:37;;;;;;;0.20;0.20;;;;;;;5.14;98.81;101320.34;5055339;28;20496;-52
2022/02/11 08:09:03;;;;;;;0.20;0.10;;;;;;;5.12;99.63;101320.31;5061505;28;20461;-52
2022/02/11 08:11:34;;;;;;;0.20;0.10;;;;;;;5.11;99.74;101326.47;5066857;28;20498;-52
2022/02/11 08:14:02;;;;;;;0.20;0.10;;;;;;;5.35;98.51;101331.97;5068230;28;20450;-52
2022/02/11 08:16:29;;;;;;;0.20;0.10;;;;;;;5.27;98.45;101335.41;5064909;28;20453;-51
2022/02/11 08:18:57;;;;;;;0.30;0.20;;;;;;;5.38;98.67;101328.47;5071727;28;20978;-52
2022/02/11 08:21:24;;;;;;;0.20;0.10;;;;;;;5.43;98.67;101342.56;5059817;28;20971;-52
2022/02/11 08:23:51;;;;;;;0.20;0.20;;;;;;;5.37;98.99;101347.81;5068170;28;20447;-52
2022/02/11 08:26:18;;;;;;;0.20;0.10;;;;;;;5.31;99.01;101353.88;5065078;28;20458;-52
2022/02/11 08:28:45;;;;;;;0.20;0.20;;;;;;;5.64;97.79;101363.00;5061145;28;20454;-52
2022/02/11 08:31:12;;;;;;;0.20;0.10;;;;;;;5.55;98.89;101355.00;5064144;28;20983;-52
2022/02/11 08:33:38;;;;;;;0.20;0.10;;;;;;;5.41;98.60;101361.91;5068193;28;20481;-52
2022/02/11 08:36:05;;;;;;;0.20;0.10;;;;;;;5.64;98.46;101365.63;5056751;28;20486;-52
2022/02/11 08:38:32;;;;;;;0.20;0.10;;;;;;;5.80;97.60;101378.09;5067870;28;20516;-52
2022/02/11 08:40:59;;;;;;;0.20;0.20;;;;;;;5.67;97.45;101380.59;5063867;28;20462;-53
2022/02/11 08:43:27;;;;;;;0.20;0.10;;;;;;;5.91;97.81;101386.13;5059944;28;20452;-52
2022/02/11 08:45:54;;;;;;;0.20;0.10;;;;;;;5.62;97.27;101377.94;5063103;28;20955;-52
2022/02/11 08:48:20;;;;;;;0.30;0.20;;;;;;;5.81;97.13;101378.97;5067716;28;20451;-52
2022/02/11 08:50:47;;;;;;;2.40;1.17;;;;;;;5.85;98.55;101383.38;5065782;28;20489;-52
2022/02/11 08:53:36;;;;;;;0.20;0.10;;;;;;;5.88;97.70;101394.84;5049205;28;20454;-52
2022/02/11 08:56:05;;;;;;;0.20;0.10;;;;;;;6.03;97.57;101396.78;5061097;28;20493;-52
2022/02/11 08:58:35;;;;;;;0.20;0.10;;;;;;;5.98;97.87;101398.47;5065326;28;20443;-52
2022/02/11 09:01:02;;;;;;;0.20;0.10;;;;;;;6.17;97.55;101402.16;5067575;28;20480;-52
2022/02/11 09:03:29;;;;;;;0.20;0.13;;;;;;;6.42;96.55;101400.56;5063430;28;20450;-52
2022/02/11 09:05:56;;;;;;;0.20;0.13;;;;;;;6.60;96.86;101410.38;5060094;28;20454;-52
2022/02/11 09:08:24;;;;;;;0.20;0.10;;;;;;;6.38;97.18;101419.91;5064210;28;20447;-52
2022/02/11 09:10:51;;;;;;;0.20;0.10;;;;;;;6.41;96.43;101430.47;5066988;28;20490;-52
2022/02/11 09:13:18;;;;;;;0.20;0.10;;;;;;;6.37;96.70;101428.69;5064465;28;20453;-52
2022/02/11 09:15:48;;;;;;;0.20;0.10;;;;;;;6.15;96.27;101432.91;5056692;28;20858;-52
2022/02/11 09:18:15;;;;;;;0.20;0.13;;;;;;;6.19;96.86;101440.00;5064692;28;20454;-52
2022/02/11 09:20:41;;;;;;;0.20;0.20;;;;;;;6.39;96.42;101448.06;5060046;28;20923;-52
2022/02/11 09:23:08;;;;;;;0.20;0.10;;;;;;;6.51;96.70;101456.97;5065678;28;20503;-52
2022/02/11 09:25:35;;;;;;;0.20;0.10;;;;;;;6.57;96.41;101453.47;5060068;28;20519;-52
2022/02/11 09:28:01;;;;;;;0.20;0.10;;;;;;;6.58;95.39;101462.28;5062413;28;20506;-52
2022/02/11 09:30:28;;;;;;;0.20;0.10;;;;;;;6.62;94.65;101469.38;5066653;28;20486;-51
2022/02/11 09:32:57;;;;;;;0.20;0.20;;;;;;;6.67;96.21;101471.16;5064830;28;21016;-51
2022/02/11 09:35:24;;;;;;;0.20;0.10;;;;;;;6.89;95.03;101471.28;5057834;28;20474;-52
2022/02/11 09:37:51;;;;;;;0.20;0.10;;;;;;;6.86;95.47;101480.09;5065412;28;20449;-52
2022/02/11 09:40:22;;;;;;;0.20;0.20;;;;;;;6.73;94.56;101476.50;5059616;28;20450;-52
2022/02/11 09:42:53;;;;;;;0.20;0.10;;;;;;;6.87;93.01;101483.63;5060449;28;20459;-52
2022/02/11 09:45:20;;;;;;;0.20;0.10;;;;;;;6.87;92.66;101494.19;5058861;28;20495;-52
2022/02/11 09:47:49;;;;;;;0.20;0.20;;;;;;;6.95;93.42;101485.41;5059455;28;20482;-52
2022/02/11 09:50:15;;;;;;;0.20;0.20;;;;;;;6.98;93.03;101495.09;5065700;28;20438;-52
2022/02/11 09:52:48;;;;;;;0.20;0.10;;;;;;;7.16;92.13;101504.91;5066439;28;20468;-52
2022/02/11 09:55:33;;;;;;;0.20;0.13;;;;;;;7.17;92.89;101518.16;5061629;28;20214;-52
2022/02/11 09:58:17;;;;;;;0.50;0.50;;;;;;;7.25;90.60;101507.59;5059388;28;20583;-52
2022/02/11 10:00:52;;;;;;;0.20;0.20;;;;;;;6.99;91.57;101502.16;5059587;28;21013;-52
2022/02/11 10:03:22;;;;;;;0.27;0.20;;;;;;;7.20;90.95;101504.03;5060695;28;20432;-52
2022/02/11 10:06:00;;;;;;;0.20;0.20;;;;;;;7.27;91.56;101509.38;5057264;28;20462;-52
2022/02/11 10:08:29;;;;;;;0.20;0.10;;;;;;;7.33;90.70;101522.63;5062903;28;20457;-52
2022/02/11 10:10:58;;;;;;;0.20;0.10;;;;;;;7.03;91.38;101528.63;5059003;28;20490;-52
2022/02/11 10:13:31;;;;;;;0.20;0.10;;;;;;;7.03;90.81;101530.41;5061928;28;20935;-52
2022/02/11 10:16:08;;;;;;;0.20;0.10;;;;;;;7.24;91.93;101526.97;5069058;28;20438;-52
2022/02/11 10:18:47;;;;;;;0.20;0.10;;;;;;;6.88;93.92;101549.69;5072578;28;20442;-52
2022/02/11 10:21:24;;;;;;;0.20;0.20;;;;;;;6.86;96.34;101567.31;5045835;28;20517;-52
2022/02/11 10:23:55;;;;;;;0.20;0.20;;;;;;;6.58;100.00;101565.28;5068020;28;20442;-51
2022/02/11 10:26:27;;;;;;;0.20;0.10;;;;;;;6.86;100.00;101574.34;5063310;28;20480;-51
2022/02/11 10:28:56;;;;;;;0.20;0.20;;;;;;;6.71;100.00;101581.25;5058948;28;20495;-51
2022/02/11 10:31:30;;;;;;;0.30;0.20;;;;;;;6.73;100.00;101583.94;5060365;28;20995;-52
2022/02/11 10:34:11;;;;;;;0.20;0.10;;;;;;;6.80;100.00;101589.25;5065824;28;20446;-51
2022/02/11 10:36:48;;;;;;;0.20;0.10;;;;;;;7.06;98.89;101575.34;5055406;28;20443;-52
2022/02/11 10:39:21;;;;;;;0.30;0.20;;;;;;;7.05;100.00;101563.91;5062262;28;20454;-52
2022/02/11 10:42:04;;;;;;;0.20;0.20;;;;;;;6.98;97.26;101570.00;5065353;28;20467;-52
2022/02/11 10:44:44;;;;;;;0.20;0.20;;;;;;;7.33;96.11;101570.22;5065228;28;20442;-52
2022/02/11 10:47:12;;;;;;;0.20;0.10;;;;;;;7.19;95.03;101577.19;5064114;28;20449;-52
2022/02/11 10:49:47;;;;;;;0.20;0.10;;;;;;;7.37;93.60;101585.22;5065732;28;20446;-53
2022/02/11 10:52:20;;;;;;;0.20;0.10;;;;;;;7.56;91.33;101580.06;5062537;28;20528;-53
2022/02/11 10:54:54;;;;;;;0.30;0.10;;;;;;;7.45;90.07;101580.00;5058804;28;21007;-53
2022/02/11 10:57:24;;;;;;;0.20;0.10;;;;;;;7.58;89.70;101586.22;5059744;28;20451;-52
2022/02/11 10:59:52;;;;;;;0.30;0.20;;;;;;;7.65;88.91;101588.00;5065614;28;20455;-53
2022/02/11 11:02:21;;;;;;;0.30;0.20;;;;;;;7.72;88.10;101588.06;5065177;28;20552;-53
2022/02/11 11:04:50;;;;;;;1.00;1.00;;;;;;;7.88;87.47;101586.34;5064755;28;21033;-53
2022/02/11 11:07:26;;;;;;;0.63;0.63;;;;;;;8.03;87.14;101577.56;5065339;28;20477;-53
2022/02/11 11:10:15;;;;;;;0.20;0.10;;;;;;;8.11;83.38;101589.06;5063788;28;20938;-53
2022/02/11 11:12:48;;;;;;;0.20;0.20;;;;;;;8.20;85.15;101582.88;5058109;28;20497;-53
2022/02/11 11:15:18;;;;;;;0.20;0.17;;;;;;;8.22;83.20;101579.38;5058358;28;20827;-53
2022/02/11 11:17:46;;;;;;;0.30;0.20;;;;;;;8.21;82.39;101592.59;5045355;28;20541;-53
2022/02/11 11:20:12;;;;;;;0.20;0.13;;;;;;;8.38;81.05;101582.09;5058140;28;20815;-53
2022/02/11 11:22:42;;;;;;;0.20;0.20;;;;;;;8.51;81.52;101589.16;5063022;28;20496;-53
2022/02/11 11:25:09;;;;;;;0.30;0.20;;;;;;;8.39;81.15;101578.56;5058358;28;20454;-53
2022/02/11 11:27:44;;;;;;;0.20;0.20;;;;;;;8.43;81.29;101588.25;5065190;28;20450;-53
2022/02/11 11:30:32;;;;;;;0.20;0.20;;;;;;;8.24;82.36;101580.28;5069299;28;20468;-53
2022/02/11 11:33:07;;;;;;;0.20;0.20;;;;;;;8.24;82.06;101592.63;5066379;28;20492;-53
2022/02/11 11:35:40;;;;;;;0.20;0.20;;;;;;;8.21;81.09;101600.53;5057812;28;20442;-53
2022/02/11 11:38:14;;;;;;;0.20;0.20;;;;;;;8.02;83.35;101610.22;5069405;28;20441;-53
2022/02/11 11:41:03;;;;;;;0.20;0.10;;;;;;;7.83;86.09;101618.97;5064002;28;20951;-53
2022/02/11 11:43:43;;;;;;;0.20;0.10;;;;;;;7.22;93.83;101623.94;5062406;28;20450;-53
2022/02/11 11:46:16;;;;;;;0.20;0.20;;;;;;;7.07;97.10;101643.22;5061912;28;20437;-53
2022/02/11 11:48:56;;;;;;;0.20;0.10;;;;;;;7.01;99.33;101649.34;5065970;28;20450;-53
2022/02/11 11:51:24;;;;;;;0.20;0.20;;;;;;;7.10;97.95;101636.19;5068514;28;20494;-53
2022/02/11 11:54:10;;;;;;;0.20;0.20;;;;;;;7.13;100.00;101632.69;5065405;28;20445;-53
2022/02/11 11:56:37;;;;;;;0.20;0.20;;;;;;;7.25;100.00;101629.22;5061481;28;20446;-53
2022/02/11 11:59:16;;;;;;;0.20;0.10;;;;;;;7.31;100.00;101634.56;5062104;28;20442;-53
2022/02/11 12:02:03;;;;;;;0.20;0.10;;;;;;;7.57;100.00;101624.16;5063445;28;21040;-53
2022/02/11 12:04:32;;;;;;;0.23;0.13;;;;;;;7.61;97.55;101625.94;5061517;28;20942;-53
2022/02/11 12:07:16;;;;;;;0.20;0.10;;;;;;;7.80;94.62;101614.53;5071083;28;20445;-53
2022/02/11 12:09:45;;;;;;;0.20;0.10;;;;;;;7.90;90.26;101619.00;5050390;28;20446;-54
2022/02/11 12:12:13;;;;;;;0.20;0.10;;;;;;;8.18;92.33;101612.03;5061342;28;20865;-53
2022/02/11 12:14:43;;;;;;;0.20;0.20;;;;;;;8.33;89.38;101613.81;5066664;28;20512;-53
2022/02/11 12:17:12;;;;;;;0.30;0.20;;;;;;;8.08;86.72;101615.50;5056622;28;21096;-53
2022/02/11 12:19:40;;;;;;;0.20;0.20;;;;;;;8.27;84.11;101611.16;5065785;28;20482;-53
2022/02/11 12:22:07;;;;;;;0.30;0.20;;;;;;;8.21;84.65;101621.72;5061757;28;20466;-52
2022/02/11 12:27:30;;;;;;;0.20;0.10;;;;;;;8.01;85.44;101627.88;5068112;28;20447;-53
2022/02/11 12:30:16;;;;;;;0.20;0.20;;;;;;;8.26;84.90;101633.25;5067808;28;20456;-53
2022/02/11 12:32:45;;;;;;;0.20;0.10;;;;;;;8.24;82.50;101642.97;5064533;28;20493;-53
2022/02/11 12:35:17;;;;;;;0.20;0.20;;;;;;;8.27;83.92;101642.97;5060051;28;20478;-53
2022/02/11 12:37:47;;;;;;;0.20;0.20;;;;;;;8.27;78.39;101642.97;5065594;28;20449;-53
2022/02/11 12:40:22;;;;;;;0.20;0.20;;;;;;;8.86;81.86;101648.38;5060963;28;20446;-53
2022/02/11 12:42:54;;;;;;;0.30;0.20;;;;;;;8.94;90.67;101658.09;5061308;28;20894;-53
2022/02/11 12:45:24;;;;;;;0.30;0.20;;;;;;;8.82;91.18;101653.69;5060612;28;20571;-53
2022/02/11 12:47:53;;;;;;;0.30;0.13;;;;;;;8.62;87.05;101709.31;5060714;28;20450;-53
2022/02/11 12:50:27;;;;;;;0.30;0.20;;;;;;;7.61;90.16;101689.44;5066309;28;20461;-53
2022/02/11 12:52:57;;;;;;;0.20;0.10;;;;;;;6.93;94.15;101695.97;5068306;28;20550;-52
2022/02/11 12:55:23;;;;;;;0.20;0.20;;;;;;;6.69;93.71;101686.03;5067634;28;20484;-53
2022/02/11 12:57:53;;;;;;;0.20;0.20;;;;;;;6.23;92.62;101676.75;5060757;28;20492;-53
2022/02/11 13:00:24;;;;;;;0.20;0.10;;;;;;;6.48;93.42;101675.28;5063718;28;20893;-53
2022/02/11 13:02:58;;;;;;;0.20;0.20;;;;;;;6.56;93.59;101675.34;5066364;28;20465;-53
2022/02/11 13:05:27;;;;;;;0.20;0.20;;;;;;;6.62;94.28;101680.72;5063639;28;20451;-53
2022/02/11 13:07:55;;;;;;;0.20;0.10;;;;;;;6.59;95.40;101678.03;5067253;28;20504;-52
2022/02/11 13:10:24;;;;;;;0.20;0.10;;;;;;;6.69;95.54;101664.03;5067069;28;20950;-53
2022/02/11 13:12:54;;;;;;;0.30;0.10;;;;;;;6.90;94.48;101668.63;5055076;23;20495;-55
2022/02/11 13:15:27;;;;;;;0.20;0.13;;;;;;;6.87;89.86;101664.22;5040092;28;20452;-55
2022/02/11 13:18:04;;;;;;;0.20;0.10;;;;;;;6.72;86.18;101658.78;5042163;28;21007;-54
2022/02/11 13:20:36;;;;;;;0.20;0.20;;;;;;;6.99;86.45;101658.13;5040884;28;20455;-55
2022/02/11 13:23:03;;;;;;;0.20;0.10;;;;;;;7.17;84.92;101678.56;5035609;28;20517;-55
2022/02/11 13:25:31;;;;;;;0.20;0.10;;;;;;;7.27;85.51;101667.19;5020648;28;20451;-55
2022/02/11 13:27:57;;;;;;;0.20;0.20;;;;;;;7.36;86.16;101672.50;5023713;28;20875;-55
2022/02/11 13:30:24;;;;;;;0.20;0.13;;;;;;;7.41;84.85;101684.03;5009429;28;20456;-55
2022/02/11 13:32:52;;;;;;;0.20;0.20;;;;;;;7.45;84.79;101677.88;5024184;28;20491;-55
2022/02/11 13:35:19;;;;;;;0.20;0.10;;;;;;;7.32;83.46;101668.97;5016245;28;20501;-54
2022/02/11 13:37:58;;;;;;;0.20;0.10;;;;;;;7.26;84.27;101682.13;5016399;28;20451;-55
2022/02/11 13:40:27;;;;;;;0.20;0.10;;;;;;;7.30;84.69;101691.00;5020167;28;20451;-56
2022/02/11 13:42:55;;;;;;;0.20;0.10;;;;;;;7.28;83.72;101703.31;5020076;28;20543;-55
2022/02/11 13:45:21;;;;;;;0.20;0.10;;;;;;;7.01;82.89;101702.22;5025919;28;20482;-55
2022/02/11 13:48:07;;;;;;;0.20;0.10;;;;;;;6.95;85.19;101704.78;5026763;28;20443;-58
2022/02/11 13:51:06;;;;;;;0.20;0.17;;;;;;;7.11;85.54;101705.81;5022834;28;20471;-55
2022/02/11 13:53:44;;;;;;;0.20;0.10;;;;;;;7.05;86.46;101705.78;5010493;28;20549;-56
2022/02/11 13:56:14;;;;;;;0.30;0.20;;;;;;;7.08;87.43;101705.78;5019868;28;21014;-56
2022/02/11 13:59:08;;;;;;;0.20;0.20;;;;;;;6.80;87.15;101694.09;5022693;28;20519;-56
2022/02/11 14:01:37;;;;;;;0.20;0.10;;;;;;;6.77;86.21;101707.28;5008602;28;20468;-56
2022/02/11 14:04:08;;;;;;;0.20;0.10;;;;;;;6.81;86.41;101709.94;5019704;28;20918;-56
2022/02/11 14:06:45;;;;;;;0.20;0.20;;;;;;;6.91;84.77;101707.41;5017332;28;20457;-56
2022/02/11 14:09:26;;;;;;;0.20;0.10;;;;;;;6.92;85.75;101706.53;5026743;28;20494;-56
2022/02/11 14:11:53;;;;;;;0.20;0.10;;;;;;;7.01;85.33;101707.50;5025235;28;20491;-56
2022/02/11 14:14:25;;;;;;;0.20;0.20;;;;;;;7.22;84.01;101713.84;5019647;28;20452;-56
2022/02/11 14:16:56;;;;;;;0.20;0.10;;;;;;;7.41;78.88;101708.72;5017082;28;20490;-56
2022/02/11 14:19:26;;;;;;;0.20;0.10;;;;;;;7.50;78.40;101723.75;5007179;28;20455;-56
2022/02/11 14:21:55;;;;;;;0.20;0.20;;;;;;;7.42;75.64;101726.34;5027475;28;20492;-56
2022/02/11 14:24:24;;;;;;;0.20;0.20;;;;;;;7.52;77.10;101731.69;5024851;28;20457;-56
2022/02/11 14:26:52;;;;;;;0.20;0.20;;;;;;;7.80;77.25;101728.34;5025782;28;20856;-55
2022/02/11 14:29:19;;;;;;;0.20;0.10;;;;;;;7.77;77.35;101732.75;5021463;28;20447;-56
2022/02/11 14:31:47;;;;;;;0.20;0.20;;;;;;;7.94;75.65;101739.91;5019228;28;20503;-56
2022/02/11 14:34:15;;;;;;;0.20;0.20;;;;;;;7.90;74.73;101743.41;5023737;28;20499;-56
2022/02/11 14:36:43;;;;;;;0.20;0.20;;;;;;;7.76;75.23;101747.75;5004759;28;20453;-55
2022/02/11 14:39:16;;;;;;;0.20;0.13;;;;;;;7.88;74.31;101752.22;5022382;28;20487;-55
2022/02/11 14:41:46;;;;;;;0.20;0.20;;;;;;;7.88;74.94;101749.59;5019169;28;20472;-56
2022/02/11 14:44:13;;;;;;;0.20;0.20;;;;;;;7.88;75.07;101753.13;5021485;28;20832;-56
2022/02/11 14:46:40;;;;;;;0.20;0.10;;;;;;;8.02;75.03;101756.72;5025570;28;21016;-56
2022/02/11 14:49:07;;;;;;;0.20;0.10;;;;;;;7.91;75.24;101754.91;5023999;28;20509;-56
2022/02/11 14:51:34;;;;;;;0.20;0.20;;;;;;;7.67;76.26;101761.78;5018924;28;20506;-55
2022/02/11 14:54:11;;;;;;;0.20;0.10;;;;;;;7.62;77.36;101752.06;5020690;28;20452;-55
2022/02/11 14:56:39;;;;;;;0.20;0.10;;;;;;;7.56;78.30;101760.84;5008646;28;20520;-56
2022/02/11 14:59:09;;;;;;;0.20;0.10;;;;;;;7.81;78.06;101763.66;5026245;28;20444;-56
2022/02/11 15:01:40;;;;;;;0.20;0.20;;;;;;;7.87;77.56;101769.88;5025353;28;20468;-55
2022/02/11 15:04:07;;;;;;;0.20;0.20;;;;;;;7.59;77.72;101773.22;5026121;28;20452;-55
2022/02/11 15:06:34;;;;;;;0.20;0.20;;;;;;;7.57;75.77;101788.19;5020223;28;20884;-56
2022/02/11 15:09:02;;;;;;;0.20;0.20;;;;;;;7.49;77.53;101787.22;5019026;28;20448;-56
2022/02/11 15:11:28;;;;;;;0.20;0.20;;;;;;;7.45;79.43;101801.31;5023728;28;20469;-56
2022/02/11 15:13:55;;;;;;;0.20;0.10;;;;;;;7.23;80.25;101790.53;5025550;28;21061;-55
2022/02/11 15:16:22;;;;;;;0.20;0.10;;;;;;;7.18;83.57;101808.13;5013063;28;20441;-55
2022/02/11 15:18:49;;;;;;;0.20;0.10;;;;;;;7.11;81.63;101806.28;5025762;28;20486;-55
2022/02/11 15:21:18;;;;;;;0.20;0.10;;;;;;;7.17;82.02;101808.13;5021218;28;20881;-55
2022/02/11 15:23:46;;;;;;;0.20;0.20;;;;;;;7.04;83.02;101809.75;5029371;28;20964;-55
2022/02/11 15:26:16;;;;;;;0.20;0.10;;;;;;;7.01;83.47;101804.44;5022104;28;20452;-55
2022/02/11 15:28:43;;;;;;;0.20;0.10;;;;;;;7.03;83.36;101800.94;5019208;28;20447;-55
2022/02/11 15:31:18;;;;;;;0.20;0.10;;;;;;;6.84;84.07;101796.31;5021077;28;20506;-55
2022/02/11 15:33:45;;;;;;;0.30;0.20;;;;;;;6.91;82.89;101805.19;5025075;28;20488;-55
2022/02/11 15:36:15;;;;;;;0.20;0.10;;;;;;;7.04;83.05;101796.53;5004727;28;20950;-55
2022/02/11 15:38:42;;;;;;;0.20;0.20;;;;;;;7.15;81.57;101810.75;5016702;28;20451;-55